Time;durP1;ratioP1;P1;durP2;ratioP2;P2;SDS_P1;SDS_P2;PMS_P1;PMS_P2;Temp;Humidity;BMP_temperature;BMP_pressure;BME280_temperature;BME280_humidity;BME280_pressure;Samples;Min_cycle;Max_cycle;Signal;HPM_P1;HPM_P2
2022/01/10 00:01:43;;;;;;;6.95;4.25;;;3.40;79.90;;;1.26;90.44;95305.97;4944346;28;20165;-65
2022/01/10 00:04:08;;;;;;;6.22;4.43;;;3.40;79.80;;;1.28;90.19;95304.03;4948543;29;20415;-64
2022/01/10 00:06:35;;;;;;;8.18;5.03;;;3.40;79.80;;;1.27;90.82;95307.59;4912944;29;20043;-64
2022/01/10 00:09:01;;;;;;;7.32;4.78;;;3.40;80.00;;;1.28;90.10;95298.84;4929231;29;20119;-64
2022/01/10 00:11:27;;;;;;;8.32;4.15;;;3.50;80.00;;;1.26;90.51;95305.97;4931652;29;20526;-66
2022/01/10 00:13:53;;;;;;;5.53;4.47;;;3.50;80.10;;;1.27;90.15;95310.19;4930910;29;20039;-65
2022/01/10 00:16:18;;;;;;;6.95;4.55;;;3.40;79.80;;;1.23;90.65;95302.72;4930532;28;20043;-65
2022/01/10 00:18:44;;;;;;;6.82;4.90;;;3.40;79.80;;;1.23;90.53;95301.91;4930376;29;20036;-65
2022/01/10 00:21:10;;;;;;;7.30;4.80;;;3.40;79.90;;;1.23;91.23;95297.53;4908833;29;20032;-64
2022/01/10 00:23:36;;;;;;;6.72;4.40;;;3.40;79.90;;;1.25;90.73;95299.16;4947002;29;20071;-64
2022/01/10 00:26:02;;;;;;;8.52;4.20;;;3.40;79.80;;;1.23;90.65;95309.66;4929337;29;20024;-64
2022/01/10 00:28:27;;;;;;;7.80;4.25;;;3.40;79.80;;;1.23;90.12;95307.88;4930969;29;20567;-66
2022/01/10 00:30:53;;;;;;;5.82;4.13;;;3.40;80.00;;;1.21;90.43;95301.25;4931054;29;20043;-64
2022/01/10 00:33:19;;;;;;;7.32;4.70;;;3.40;79.80;;;1.21;90.72;95301.25;4945759;29;20098;-66
2022/01/10 00:35:44;;;;;;;9.02;4.88;;;3.40;80.10;;;1.19;90.80;95298.81;4914095;29;20127;-65
2022/01/10 00:38:10;;;;;;;6.32;4.47;;;3.40;80.00;;;1.20;90.08;95304.78;4916484;29;20031;-65
2022/01/10 00:40:36;;;;;;;7.80;4.97;;;3.30;80.20;;;1.17;90.43;95298.13;4930635;29;20452;-64
2022/01/10 00:43:02;;;;;;;6.90;4.50;;;3.30;80.10;;;1.16;90.68;95298.28;4931550;29;20537;-64
2022/01/10 00:45:29;;;;;;;8.68;5.22;;;3.30;80.10;;;1.12;90.57;95295.16;4929918;29;20415;-65
2022/01/10 00:47:59;;;;;;;8.90;4.97;;;3.20;80.30;;;1.11;91.18;95298.72;4944517;29;20031;-64
2022/01/10 00:50:26;;;;;;;7.68;4.38;;;3.20;80.20;;;1.09;91.18;95302.44;4913684;28;20042;-65
2022/01/10 00:52:52;;;;;;;7.75;5.07;;;3.10;80.40;;;1.08;91.52;95311.97;4922630;29;20211;-65
2022/01/10 00:55:18;;;;;;;7.30;5.28;;;3.10;80.60;;;1.07;90.57;95307.75;4943760;29;20079;-65
2022/01/10 00:57:44;;;;;;;8.65;4.72;;;3.10;80.80;;;1.06;91.50;95316.50;4898052;29;20143;-65
2022/01/10 01:00:12;;;;;;;6.82;4.85;;;3.10;80.70;;;1.04;90.63;95313.25;4916631;29;20503;-65
2022/01/10 01:02:38;;;;;;;7.68;4.70;;;3.10;80.70;;;1.03;91.57;95313.41;4932101;28;20075;-64
2022/01/10 01:05:08;;;;;;;7.55;5.35;;;3.10;80.70;;;1.04;91.55;95318.41;4896220;29;20043;-65
2022/01/10 01:07:34;;;;;;;7.45;5.03;;;3.10;80.80;;;1.03;91.31;95314.22;4931965;28;20047;-66
2022/01/10 01:10:24;;;;;;;8.35;5.32;;;3.10;80.80;;;1.03;91.62;95326.34;4930151;29;20060;-65
2022/01/10 01:15:24;;;;;;;6.90;5.07;;;3.10;80.80;;;1.01;91.50;95329.09;4933295;29;20031;-65
2022/01/10 01:26:02;;;;;;;7.95;5.13;;;3.10;80.80;;;0.99;91.40;95341.38;4923439;29;20050;-64
2022/01/10 01:28:27;;;;;;;6.85;4.97;;;3.10;80.70;;;1.00;92.09;95344.78;4920270;29;20066;-64
2022/01/10 01:30:53;;;;;;;8.07;5.32;;;3.10;80.60;;;0.98;91.53;95352.69;4930351;29;20040;-65
2022/01/10 01:33:19;;;;;;;7.38;4.97;;;3.10;80.50;;;0.99;92.11;95356.91;4914694;29;20530;-65
2022/01/10 01:35:45;;;;;;;7.85;5.47;;;3.10;80.70;;;1.00;91.20;95361.13;4928501;29;20067;-65
2022/01/10 01:38:11;;;;;;;9.25;5.18;;;3.10;80.60;;;1.00;90.89;95363.72;4930492;29;20397;-66
2022/01/10 01:40:43;;;;;;;7.78;5.20;;;3.10;80.60;;;1.00;92.15;95358.53;4928773;29;20071;-65
2022/01/10 01:43:09;;;;;;;7.13;5.25;;;3.20;80.60;;;1.02;91.86;95374.72;4930607;29;20526;-64
2022/01/10 01:45:38;;;;;;;7.30;4.70;;;3.20;80.60;;;1.02;91.64;95376.50;4927138;29;20114;-64
2022/01/10 01:48:04;;;;;;;10.15;5.10;;;3.10;80.50;;;1.01;91.71;95375.69;4914674;29;20087;-65
2022/01/10 01:50:29;;;;;;;9.18;4.90;;;3.20;80.40;;;1.02;91.86;95382.50;4893009;29;20413;-65
2022/01/10 01:52:55;;;;;;;7.47;4.88;;;3.20;80.50;;;1.03;91.52;95383.31;4929523;29;20167;-66
2022/01/10 01:55:21;;;;;;;7.88;4.93;;;3.10;80.30;;;1.03;91.23;95386.72;4915148;29;20051;-65
2022/01/10 01:57:47;;;;;;;6.85;4.75;;;3.20;80.30;;;1.03;91.62;95386.72;4930613;29;20036;-65
2022/01/10 02:00:13;;;;;;;8.35;5.35;;;3.10;80.30;;;1.02;91.66;95394.63;4931219;29;20032;-65
2022/01/10 02:02:38;;;;;;;9.65;5.50;;;3.20;80.40;;;1.02;91.97;95390.25;4946339;28;20123;-66
2022/01/10 02:05:05;;;;;;;9.20;5.30;;;3.10;80.40;;;1.02;91.51;95392.84;4930463;29;20035;-65
2022/01/10 02:07:30;;;;;;;8.20;5.20;;;3.20;80.20;;;1.04;91.64;95393.53;4943066;29;20524;-64
2022/01/10 02:09:56;;;;;;;8.23;5.57;;;3.20;80.00;;;1.02;91.06;95397.22;4931727;29;20039;-66
2022/01/10 02:12:23;;;;;;;8.73;5.60;;;3.20;80.00;;;1.04;91.66;95401.28;4944590;28;20086;-66
2022/01/10 02:14:48;;;;;;;8.25;5.75;;;3.20;80.00;;;1.04;91.67;95406.47;4929587;29;20095;-65
2022/01/10 02:17:19;;;;;;;8.57;5.55;;;3.20;80.30;;;1.08;91.60;95407.78;4897140;29;20031;-64
2022/01/10 02:20:01;;;;;;;9.30;5.77;;;3.20;80.50;;;1.06;91.89;95409.72;4927352;29;20523;-66
2022/01/10 02:22:27;;;;;;;9.95;6.10;;;3.20;80.30;;;1.06;91.79;95412.31;4926900;29;20130;-65
2022/01/10 02:24:53;;;;;;;8.13;5.65;;;3.20;80.40;;;1.08;91.96;95423.34;4930491;29;20082;-65
2022/01/10 02:27:22;;;;;;;10.75;5.88;;;3.20;80.40;;;1.07;91.46;95420.88;4935553;29;20039;-65
2022/01/10 02:29:48;;;;;;;8.93;6.25;;;3.20;80.40;;;1.07;91.56;95431.25;4929400;29;20114;-65
2022/01/10 02:32:14;;;;;;;7.05;5.40;;;3.20;80.40;;;1.06;91.47;95427.84;4930711;29;20040;-66
2022/01/10 02:34:40;;;;;;;7.97;5.75;;;3.20;80.40;;;1.03;91.79;95429.91;4940307;28;20070;-64
2022/01/10 02:37:06;;;;;;;12.15;5.93;;;3.20;80.40;;;1.02;91.77;95429.09;4949180;28;20125;-65
2022/01/10 02:39:31;;;;;;;9.77;6.05;;;3.20;80.60;;;1.00;91.39;95446.56;4917895;29;20131;-65
2022/01/10 02:41:57;;;;;;;9.02;6.00;;;3.20;80.50;;;1.01;92.20;95448.19;4917199;29;20135;-64
2022/01/10 02:44:23;;;;;;;11.98;5.90;;;3.20;80.60;;;1.00;92.06;95446.56;4931669;29;20054;-66
2022/01/10 02:46:49;;;;;;;9.27;6.38;;;3.20;80.60;;;1.00;91.60;95456.09;4932667;29;20095;-65
2022/01/10 02:49:23;;;;;;;9.00;6.65;;;3.10;80.60;;;1.00;91.91;95456.09;4933902;29;20109;-65
2022/01/10 02:51:49;;;;;;;9.80;6.00;;;3.20;80.60;;;1.00;92.44;95461.28;4917232;29;20043;-64
2022/01/10 02:54:14;;;;;;;10.60;6.70;;;3.20;80.70;;;1.00;91.97;95456.09;4932860;29;20035;-65
2022/01/10 02:56:56;;;;;;;10.40;6.30;;;3.20;80.70;;;1.02;92.40;95465.34;4916604;29;20039;-65
2022/01/10 02:59:22;;;;;;;;;;;3.20;80.80;;;1.01;93.15;95463.72;4929738;29;20506;-64
2022/01/10 03:01:48;;;;;;;9.52;6.43;;;3.20;80.60;;;0.99;92.00;95465.66;4920761;29;19926;-65
2022/01/10 03:04:15;;;;;;;11.48;6.78;;;3.20;80.60;;;1.01;91.66;95468.91;4932187;29;20443;-65
2022/01/10 03:06:41;;;;;;;10.00;6.65;;;3.20;80.60;;;1.03;92.44;95472.16;4930731;29;20244;-65
2022/01/10 03:09:08;;;;;;;10.30;6.45;;;3.20;80.60;;;1.03;92.32;95481.72;4933156;29;20452;-66
2022/01/10 03:11:34;;;;;;;11.73;7.30;;;3.20;80.70;;;1.03;92.48;95477.34;4933250;29;20036;-65
2022/01/10 03:14:00;;;;;;;11.18;7.03;;;3.10;80.60;;;1.03;91.82;95482.53;4930525;29;20119;-65
2022/01/10 03:16:26;;;;;;;11.82;7.45;;;3.20;80.90;;;1.02;91.95;95480.91;4913084;29;20119;-64
2022/01/10 03:18:52;;;;;;;11.10;7.20;;;3.20;80.80;;;1.02;91.68;95485.25;4931615;29;20118;-64
2022/01/10 03:21:20;;;;;;;11.55;7.57;;;3.20;80.60;;;1.02;91.44;95486.06;4931768;29;20090;-65
2022/01/10 03:23:47;;;;;;;11.35;7.30;;;3.20;80.60;;;1.02;92.32;95490.44;4931319;29;20524;-65
2022/01/10 03:26:13;;;;;;;9.60;6.82;;;3.20;80.60;;;1.02;91.96;95491.25;4916113;29;20039;-65
2022/01/10 03:28:39;;;;;;;11.23;7.22;;;3.20;80.70;;;1.01;92.01;95502.56;4931603;28;20050;-66
2022/01/10 03:31:04;;;;;;;10.23;7.38;;;3.20;80.70;;;1.02;91.61;95498.22;4945959;28;20583;-65
2022/01/10 03:33:30;;;;;;;10.25;7.28;;;3.20;80.70;;;1.02;92.30;95505.97;4945192;28;20385;-66
2022/01/10 03:35:56;;;;;;;12.65;7.65;;;3.20;80.70;;;0.97;91.93;95497.84;4914615;29;20090;-66
2022/01/10 03:38:22;;;;;;;10.38;7.55;;;3.10;80.70;;;1.00;92.17;95508.72;4917175;28;20463;-66
2022/01/10 03:40:47;;;;;;;9.77;7.35;;;3.20;80.60;;;1.00;91.79;95507.91;4914946;29;20426;-65
2022/01/10 03:43:13;;;;;;;10.88;7.53;;;3.10;80.60;;;1.00;92.17;95508.72;4945395;28;20175;-66
2022/01/10 03:45:39;;;;;;;12.68;8.30;;;3.20;80.60;;;1.02;92.16;95517.16;4882221;29;20067;-65
2022/01/10 03:48:05;;;;;;;12.48;8.20;;;3.20;80.60;;;0.99;92.11;95511.44;4930977;29;20054;-65
2022/01/10 03:50:30;;;;;;;10.63;7.80;;;3.10;80.60;;;0.99;91.77;95516.63;4895716;29;20050;-66
2022/01/10 03:52:56;;;;;;;13.15;7.93;;;3.20;80.70;;;1.01;91.80;95517.28;4917875;29;20115;-65
2022/01/10 03:55:22;;;;;;;10.75;8.18;;;3.20;80.60;;;1.00;92.37;95524.25;4928749;28;20088;-66
2022/01/10 03:57:48;;;;;;;10.38;8.00;;;3.10;80.70;;;1.00;92.32;95524.25;4930050;29;20036;-66
2022/01/10 04:00:14;;;;;;;11.88;7.82;;;3.20;80.70;;;1.00;92.31;95529.44;4946617;29;20048;-66
2022/01/10 04:02:42;;;;;;;11.20;8.48;;;3.20;80.70;;;0.99;91.75;95532.97;4930147;29;20095;-66
2022/01/10 04:05:08;;;;;;;10.95;8.10;;;3.10;80.80;;;1.00;92.14;95533.78;4927792;29;20040;-65
2022/01/10 04:07:35;;;;;;;11.13;8.27;;;3.10;80.90;;;0.97;92.31;95529.72;4937153;29;20062;-66
2022/01/10 04:10:02;;;;;;;13.93;10.57;;;3.10;81.00;;;0.95;92.57;95534.22;4917424;29;20448;-66
2022/01/10 04:12:28;;;;;;;14.38;10.23;;;3.00;81.00;;;0.90;92.55;95542.41;4931378;29;20083;-66
2022/01/10 04:14:54;;;;;;;14.13;9.63;;;3.00;81.50;;;0.89;92.33;95542.53;4930290;29;20036;-67
2022/01/10 04:17:19;;;;;;;11.85;9.18;;;2.90;81.50;;;0.87;92.33;95541.88;4931349;29;20122;-66
2022/01/10 04:19:45;;;;;;;15.52;9.18;;;3.00;81.60;;;0.86;92.49;95537.66;4930665;29;20040;-66
2022/01/10 04:22:11;;;;;;;13.07;8.93;;;3.00;81.60;;;0.85;92.65;95544.59;4917923;29;20126;-66
2022/01/10 04:24:37;;;;;;;44.78;27.33;;;2.90;81.60;;;0.81;92.47;95545.84;4929169;29;20036;-66
2022/01/10 04:27:03;;;;;;;26.80;17.63;;;2.90;81.70;;;0.82;93.34;95562.22;4928671;29;20392;-66
2022/01/10 04:29:29;;;;;;;19.40;11.85;;;2.80;82.00;;;0.80;92.74;95564.13;4939649;28;20055;-66
2022/01/10 04:31:55;;;;;;;14.73;9.93;;;2.80;82.20;;;0.77;93.07;95554.06;4940250;29;20044;-67
2022/01/10 04:34:20;;;;;;;13.95;9.85;;;2.90;82.20;;;0.77;93.04;95565.22;4909855;29;20059;-67
2022/01/10 04:36:46;;;;;;;12.95;8.82;;;2.90;81.90;;;0.77;93.88;95569.59;4934273;29;20031;-65
2022/01/10 04:39:12;;;;;;;11.57;9.02;;;2.90;82.10;;;0.75;93.57;95574.91;4887174;29;1145045;-65
2022/01/10 04:41:39;;;;;;;13.30;9.32;;;2.90;82.20;;;0.78;93.37;95584.16;4882014;29;20032;-67
2022/01/10 04:44:06;;;;;;;12.23;8.80;;;2.90;82.00;;;0.79;93.23;95586.59;4899243;29;20066;-66
2022/01/10 04:46:32;;;;;;;12.52;9.13;;;3.00;82.00;;;0.80;93.63;95584.84;4926214;28;20453;-66
2022/01/10 04:48:58;;;;;;;12.75;8.88;;;3.00;81.90;;;0.81;94.00;95589.06;4929491;28;20090;-66
2022/01/10 04:51:26;;;;;;;13.93;9.20;;;3.00;81.90;;;0.82;93.68;95588.09;4931146;29;20122;-66
2022/01/10 04:53:53;;;;;;;12.32;9.32;;;3.00;81.80;;;0.82;93.42;95590.69;4925394;29;20555;-66
2022/01/10 04:56:19;;;;;;;12.10;9.27;;;2.90;81.90;;;0.77;93.40;95587.72;4923523;29;20130;-66
2022/01/10 04:58:45;;;;;;;16.63;11.10;;;3.00;81.90;;;0.82;93.78;95603.63;4900029;29;20023;-67
2022/01/10 05:01:12;;;;;;;19.45;12.40;;;3.00;82.10;;;0.84;93.64;95606.88;4919897;29;20027;-65
2022/01/10 05:03:37;;;;;;;18.58;12.88;;;3.00;82.20;;;0.84;93.60;95605.13;4930857;29;20087;-66
2022/01/10 05:06:04;;;;;;;18.45;10.73;;;3.00;82.00;;;0.85;93.77;95605.94;4914152;29;20035;-66
2022/01/10 05:08:29;;;;;;;15.70;10.48;;;3.10;82.40;;;0.88;94.15;95605.63;4930546;29;20039;-66
2022/01/10 05:10:55;;;;;;;14.05;10.90;;;3.10;82.00;;;0.89;93.79;95615.03;4946563;28;20075;-66
2022/01/10 05:13:22;;;;;;;13.43;9.60;;;3.10;82.10;;;0.90;94.17;95619.25;4946190;28;20036;-66
2022/01/10 05:15:49;;;;;;;13.75;9.98;;;3.10;82.00;;;0.88;93.75;95614.22;4930818;29;20035;-64
2022/01/10 05:18:16;;;;;;;12.68;10.02;;;3.10;82.10;;;0.92;94.42;95619.97;4897216;29;20044;-65
2022/01/10 05:20:42;;;;;;;13.30;10.35;;;3.10;81.90;;;0.94;93.67;95633.59;4930212;28;20126;-65
2022/01/10 05:23:08;;;;;;;17.52;11.00;;;3.10;81.90;;;0.93;94.20;95636.31;4943302;28;20094;-66
2022/01/10 05:25:36;;;;;;;20.33;13.35;;;3.10;82.10;;;0.94;94.19;95637.94;4915072;29;20530;-65
2022/01/10 05:28:05;;;;;;;16.65;11.52;;;3.10;82.00;;;0.89;94.31;95630.56;4911205;29;20064;-66
2022/01/10 05:30:31;;;;;;;17.55;11.43;;;3.10;82.00;;;0.94;94.24;95648.31;4914761;29;20119;-66
2022/01/10 05:32:56;;;;;;;28.75;20.40;;;3.10;82.10;;;0.96;94.30;95651.56;4933021;29;20110;-66
2022/01/10 05:35:22;;;;;;;80.35;56.30;;;3.20;82.50;;;0.99;93.81;95662.44;4896727;29;20046;-68
2022/01/10 05:37:48;;;;;;;86.90;58.90;;;3.10;81.90;;;0.99;94.76;95661.63;4914058;29;20110;-69
2022/01/10 05:40:15;;;;;;;52.70;38.38;;;3.20;82.10;;;1.03;94.86;95665.56;4930261;29;20110;-70
2022/01/10 05:42:41;;;;;;;36.47;24.88;;;3.30;82.70;;;1.04;94.74;95670.59;4931369;29;20040;-69
2022/01/10 05:45:07;;;;;;;33.30;23.65;;;3.30;82.70;;;1.09;94.26;95671.00;4913908;29;20122;-68
2022/01/10 05:47:39;;;;;;;32.13;21.20;;;3.40;82.50;;;1.09;94.33;95678.75;4929585;29;20044;-68
2022/01/10 05:50:06;;;;;;;36.67;23.98;;;3.40;82.30;;;1.13;94.60;95685.31;4915246;29;20059;-69
2022/01/10 05:52:32;;;;;;;18.73;14.27;;;3.40;82.10;;;1.14;94.82;95681.78;4929900;29;20039;-68
2022/01/10 05:54:57;;;;;;;17.13;12.38;;;3.30;81.60;;;1.14;94.23;95686.13;4930294;29;20057;-66
2022/01/10 05:57:23;;;;;;;29.25;20.38;;;3.40;81.50;;;1.16;94.63;95695.41;4925856;29;20032;-64
2022/01/10 05:59:49;;;;;;;19.88;12.50;;;3.40;81.40;;;1.18;94.96;95703.84;4929858;29;20078;-64
2022/01/10 06:02:15;;;;;;;14.18;10.25;;;3.40;81.50;;;1.19;94.73;95705.47;4930844;29;20036;-64
2022/01/10 06:04:41;;;;;;;14.02;9.38;;;3.40;81.10;;;1.16;93.66;95705.75;4930184;28;20058;-64
2022/01/10 06:07:06;;;;;;;16.65;11.20;;;3.40;81.00;;;1.14;93.32;95707.69;4914811;29;20476;-63
2022/01/10 06:09:32;;;;;;;14.10;10.75;;;3.30;81.00;;;1.14;93.51;95707.69;4931537;29;20036;-64
2022/01/10 06:11:58;;;;;;;15.13;11.10;;;3.30;80.90;;;1.12;94.07;95712.16;4932109;29;20082;-64
2022/01/10 06:14:23;;;;;;;14.40;10.85;;;3.30;81.00;;;1.10;93.26;95719.25;4930215;29;20035;-63
2022/01/10 06:16:49;;;;;;;14.73;10.57;;;3.20;81.00;;;1.09;93.69;95719.38;4946368;29;20032;-63
2022/01/10 06:19:15;;;;;;;17.10;11.05;;;3.30;81.00;;;1.09;93.44;95724.56;4928550;29;20558;-63
2022/01/10 06:21:41;;;;;;;15.80;10.98;;;3.20;81.10;;;1.07;93.40;95729.06;4914853;29;20074;-63
2022/01/10 06:24:06;;;;;;;16.40;10.73;;;3.20;81.10;;;1.04;93.38;95725.00;4931762;28;20039;-63
2022/01/10 06:26:32;;;;;;;16.60;11.10;;;3.20;81.10;;;1.03;93.49;95731.13;4931380;28;20063;-63
2022/01/10 06:28:58;;;;;;;16.30;10.38;;;3.20;81.00;;;1.02;94.14;95732.09;4930590;29;20056;-64
2022/01/10 06:31:24;;;;;;;16.25;10.75;;;3.20;81.30;;;1.00;93.74;95741.78;4930912;29;20107;-64
2022/01/10 06:33:49;;;;;;;18.83;11.43;;;3.10;81.30;;;1.00;93.34;95739.19;4930611;29;20507;-64
2022/01/10 06:36:15;;;;;;;16.88;10.93;;;3.20;81.20;;;0.99;93.86;95750.50;4938109;29;20059;-64
2022/01/10 06:38:41;;;;;;;18.67;11.27;;;3.10;81.10;;;0.99;93.44;95747.09;4930450;28;20659;-64
2022/01/10 06:41:07;;;;;;;16.45;10.80;;;3.10;81.40;;;0.96;93.61;95755.13;4930546;29;20086;-64
2022/01/10 06:43:33;;;;;;;52.40;33.60;;;3.10;81.50;;;0.97;93.71;95762.78;4941420;28;20044;-64
2022/01/10 06:45:58;;;;;;;65.22;43.45;;;3.10;81.60;;;0.96;94.07;95771.50;4930442;29;20123;-64
2022/01/10 06:48:24;;;;;;;56.85;39.97;;;3.10;81.90;;;0.94;93.81;95773.41;4921580;29;20123;-63
2022/01/10 06:50:50;;;;;;;24.70;16.58;;;3.10;81.90;;;0.95;93.73;95779.41;4927435;29;20044;-63
2022/01/10 06:53:16;;;;;;;22.80;13.93;;;3.10;81.90;;;0.93;93.69;95782.13;4912963;29;20087;-64
2022/01/10 06:55:42;;;;;;;20.70;12.23;;;3.10;81.80;;;0.94;94.42;95782.94;4924128;29;20036;-64
2022/01/10 06:58:08;;;;;;;18.52;11.75;;;3.10;81.90;;;0.93;93.85;95787.31;4946153;29;20050;-64
2022/01/10 07:00:34;;;;;;;20.02;12.80;;;3.10;81.70;;;0.89;93.41;95788.50;4914279;28;20028;-65
2022/01/10 07:02:59;;;;;;;21.00;13.02;;;3.10;81.80;;;0.91;93.73;95795.22;4930211;29;20032;-64
2022/01/10 07:05:25;;;;;;;21.30;13.07;;;3.10;81.80;;;0.92;93.70;95801.22;4930504;29;20039;-64
2022/01/10 07:07:51;;;;;;;18.38;12.45;;;3.10;81.90;;;0.93;93.98;95810.63;4927170;29;20408;-64
2022/01/10 07:10:17;;;;;;;22.00;13.50;;;3.10;81.80;;;0.91;93.93;95809.94;4927524;29;20131;-64
2022/01/10 07:12:42;;;;;;;18.88;12.73;;;3.10;81.80;;;0.89;94.00;95806.63;4914763;29;20361;-64
2022/01/10 07:15:08;;;;;;;18.17;12.60;;;3.00;81.90;;;0.89;93.78;95814.41;4914968;29;20067;-64
2022/01/10 07:17:34;;;;;;;25.75;15.35;;;3.10;82.10;;;0.89;94.91;95817.81;4944049;29;20116;-63
2022/01/10 07:20:00;;;;;;;29.42;19.45;;;3.10;82.20;;;0.91;94.74;95820.28;4933837;29;20040;-63
2022/01/10 07:22:27;;;;;;;31.98;19.50;;;3.10;82.30;;;0.91;95.29;95828.88;4917995;28;20123;-65
2022/01/10 07:24:53;;;;;;;21.60;14.07;;;3.10;82.20;;;0.92;94.03;95837.47;4933711;29;20032;-63
2022/01/10 07:27:18;;;;;;;20.55;14.32;;;3.10;82.10;;;0.93;94.87;95844.28;4930095;29;20063;-64
2022/01/10 07:29:45;;;;;;;23.55;14.68;;;3.10;81.90;;;0.94;94.47;95847.69;4914906;29;20068;-63
2022/01/10 07:32:11;;;;;;;18.98;13.52;;;3.10;81.80;;;0.96;94.43;95850.94;4899166;29;20432;-64
2022/01/10 07:34:37;;;;;;;19.05;12.88;;;3.20;81.80;;;0.97;94.40;95862.94;4927548;28;20040;-64
2022/01/10 07:37:03;;;;;;;22.85;13.63;;;3.20;81.70;;;0.97;94.37;95865.53;4917526;29;20043;-64
2022/01/10 07:39:28;;;;;;;23.98;14.45;;;3.20;81.70;;;0.98;94.39;95873.16;4935246;28;20036;-64
2022/01/10 07:41:54;;;;;;;22.20;13.55;;;3.20;81.70;;;0.99;94.78;95877.38;4933730;29;20066;-64
2022/01/10 07:44:20;;;;;;;25.63;13.88;;;3.20;81.80;;;1.01;94.84;95887.63;4933257;29;20039;-64
2022/01/10 07:46:45;;;;;;;27.40;14.60;;;3.30;81.80;;;1.04;94.27;95882.97;4933013;29;20035;-63
2022/01/10 07:49:11;;;;;;;22.50;14.30;;;3.30;81.80;;;1.07;95.24;95897.41;4934567;29;20032;-64
2022/01/10 07:51:37;;;;;;;22.77;14.50;;;3.30;81.60;;;1.08;94.34;95893.88;4934790;29;20404;-63
2022/01/10 07:54:02;;;;;;;20.92;13.95;;;3.30;81.50;;;1.12;94.68;95901.22;4949355;29;20027;-64
2022/01/10 07:56:28;;;;;;;21.73;14.80;;;3.40;81.40;;;1.13;94.40;95897.72;4932756;29;20062;-64
2022/01/10 07:58:54;;;;;;;25.60;14.85;;;3.40;81.50;;;1.16;94.68;95901.81;4933972;29;20039;-64
2022/01/10 08:01:20;;;;;;;24.55;15.18;;;3.40;81.40;;;1.18;94.13;95907.66;4949317;29;20106;-64
2022/01/10 08:03:50;;;;;;;26.40;14.60;;;3.50;81.60;;;1.21;94.49;95918.56;4933109;29;20040;-63
2022/01/10 08:06:19;;;;;;;21.73;14.43;;;3.50;81.40;;;1.25;94.31;95915.69;4933895;28;20038;-64
2022/01/10 08:08:45;;;;;;;25.73;15.20;;;3.60;81.30;;;1.28;94.53;95915.44;4934403;28;20465;-65
2022/01/10 08:11:11;;;;;;;24.75;15.48;;;3.60;81.10;;;1.28;94.52;95920.59;4933103;29;20039;-64
2022/01/10 08:13:37;;;;;;;25.05;15.35;;;3.60;80.90;;;1.32;94.65;95922.78;4901605;29;20050;-64
2022/01/10 08:16:03;;;;;;;26.48;14.73;;;3.60;80.90;;;1.35;94.57;95932.06;4932836;29;20043;-64
2022/01/10 08:18:30;;;;;;;28.90;14.80;;;3.60;80.70;;;1.37;94.00;95936.19;4947968;28;20365;-64
2022/01/10 08:20:56;;;;;;;29.75;14.65;;;3.60;80.50;;;1.39;93.86;95930.84;4898828;29;20621;-64
2022/01/10 08:23:22;;;;;;;26.13;14.50;;;3.70;80.40;;;1.44;94.13;95941.63;4897519;29;20575;-64
2022/01/10 08:25:48;;;;;;;24.45;14.70;;;3.70;80.50;;;1.43;94.24;95934.81;4913902;29;20052;-65
2022/01/10 08:28:14;;;;;;;21.80;14.05;;;3.80;80.40;;;1.49;93.89;95939.44;4882626;29;20533;-64
2022/01/10 08:30:39;;;;;;;25.45;14.20;;;3.80;80.20;;;1.51;93.74;95947.88;4931875;29;20126;-64
2022/01/10 08:33:05;;;;;;;24.05;14.10;;;3.90;80.00;;;1.56;94.26;95950.88;4916867;29;20036;-63
2022/01/10 08:35:31;;;;;;;23.45;14.82;;;4.00;79.60;;;1.62;94.19;95954.72;4948606;28;20076;-64
2022/01/10 08:37:57;;;;;;;26.95;15.63;;;4.10;79.60;;;1.67;93.41;95957.72;4933936;28;20043;-64
2022/01/10 08:40:23;;;;;;;26.58;15.23;;;4.10;79.40;;;1.71;93.02;95967.66;4933163;28;20126;-64
2022/01/10 08:42:48;;;;;;;25.80;15.05;;;4.10;79.20;;;1.73;92.93;95964.94;4932364;29;20039;-64
2022/01/10 08:45:14;;;;;;;23.27;14.18;;;4.10;78.90;;;1.73;92.91;95963.16;4931449;29;20044;-64
2022/01/10 08:47:40;;;;;;;23.80;14.70;;;4.10;78.90;;;1.77;93.59;95968.88;4932637;29;20558;-64
2022/01/10 08:50:07;;;;;;;23.10;13.65;;;4.20;78.90;;;1.78;93.32;95971.34;4916579;29;20048;-64
2022/01/10 08:52:33;;;;;;;27.58;14.75;;;4.10;78.80;;;1.82;93.30;95983.09;4916068;28;20040;-63
2022/01/10 08:54:59;;;;;;;23.40;13.98;;;4.20;78.80;;;1.85;93.35;95989.78;4915912;29;20043;-64
2022/01/10 08:57:26;;;;;;;24.17;13.60;;;4.20;78.70;;;1.90;93.24;96004.91;4916393;29;20119;-64
2022/01/10 08:59:51;;;;;;;22.67;14.30;;;4.20;78.80;;;1.91;93.18;96006.56;4933426;29;20071;-63
2022/01/10 09:02:17;;;;;;;25.08;14.38;;;4.20;78.80;;;1.90;92.84;96000.56;4948010;29;20039;-63
2022/01/10 09:04:43;;;;;;;26.15;14.75;;;4.20;79.00;;;1.93;92.63;96002.03;4947013;29;20411;-63
2022/01/10 09:07:09;;;;;;;25.27;13.68;;;4.20;78.70;;;1.96;91.99;96009.53;4928645;29;20080;-63
2022/01/10 09:09:36;;;;;;;23.85;13.70;;;4.30;78.60;;;1.98;92.29;96007.63;4928927;29;20082;-62
2022/01/10 09:12:02;;;;;;;25.58;14.95;;;4.30;78.40;;;2.01;91.96;96017.72;4897478;29;20037;-63
2022/01/10 09:14:28;;;;;;;25.20;14.90;;;4.40;78.10;;;2.04;91.94;96023.47;4925291;28;20036;-63
2022/01/10 09:16:53;;;;;;;24.27;14.20;;;4.50;78.20;;;2.08;91.55;96021.44;4916313;29;20031;-62
2022/01/10 09:19:19;;;;;;;26.65;14.48;;;4.50;77.90;;;2.08;91.69;96024.03;4931145;29;20063;-63
2022/01/10 09:21:45;;;;;;;28.45;15.15;;;4.40;77.50;;;2.10;91.50;96022.94;4933341;28;20039;-63
2022/01/10 09:24:11;;;;;;;22.70;14.00;;;4.60;77.70;;;2.17;91.88;96028.38;4931787;29;20032;-63
2022/01/10 09:26:37;;;;;;;24.23;14.15;;;4.60;77.40;;;2.21;91.27;96034.91;4916236;28;20042;-65
2022/01/10 09:29:02;;;;;;;25.52;14.93;;;4.60;77.40;;;2.26;91.56;96034.50;4933245;28;20403;-65
2022/01/10 09:31:29;;;;;;;28.02;14.80;;;4.70;77.30;;;2.32;91.13;96032.19;4916275;29;20148;-64
2022/01/10 09:33:55;;;;;;;25.10;14.85;;;4.80;77.10;;;2.38;91.20;96031.59;4931740;29;20035;-62
2022/01/10 09:36:24;;;;;;;23.95;14.27;;;4.90;76.60;;;2.46;91.02;96036.91;4931320;29;20040;-63
2022/01/10 09:38:49;;;;;;;23.17;14.30;;;5.00;76.00;;;2.48;90.64;96031.56;4931277;29;20114;-65
2022/01/10 09:41:15;;;;;;;26.98;14.32;;;5.10;75.40;;;2.61;90.28;96055.47;4915263;29;20119;-66
2022/01/10 09:43:47;;;;;;;41.80;28.05;;;5.10;75.40;;;2.67;90.10;96067.88;4947151;29;20079;-63
2022/01/10 09:46:13;;;;;;;40.90;27.23;;;5.20;75.80;;;2.71;90.35;96076.19;4931174;29;20632;-63
2022/01/10 09:48:39;;;;;;;31.73;20.02;;;5.10;76.30;;;2.74;90.43;96076.75;4930948;29;20044;-64
2022/01/10 09:51:05;;;;;;;28.38;18.75;;;5.10;76.30;;;2.76;89.91;96081.81;4932005;28;20094;-63
2022/01/10 09:53:30;;;;;;;23.40;15.77;;;5.10;76.00;;;2.80;90.06;96084.94;4931721;29;20043;-64
2022/01/10 09:55:56;;;;;;;18.70;13.73;;;5.10;76.10;;;2.79;89.15;96091.91;4932442;28;20068;-64
2022/01/10 09:58:22;;;;;;;22.67;14.10;;;5.00;75.60;;;2.76;89.01;96092.19;4927783;29;20048;-65
2022/01/10 10:00:48;;;;;;;23.42;13.60;;;5.00;75.90;;;2.74;89.24;96094.13;4905387;29;20063;-65
2022/01/10 10:03:14;;;;;;;23.00;14.57;;;5.00;75.90;;;2.71;88.89;96097.78;4931018;29;20039;-65
2022/01/10 10:05:42;;;;;;;21.50;13.93;;;5.00;75.80;;;2.73;88.94;96097.69;4915368;29;20411;-65
2022/01/10 10:08:07;;;;;;;23.38;13.85;;;5.10;75.60;;;2.78;88.99;96102.44;4930956;29;20040;-63
2022/01/10 10:10:34;;;;;;;23.83;13.85;;;5.10;75.40;;;2.80;89.02;96097.94;4898947;28;20062;-62
2022/01/10 10:12:59;;;;;;;21.55;13.70;;;5.10;75.60;;;2.81;88.96;96100.38;4899530;29;20028;-63
2022/01/10 10:15:30;;;;;;;19.45;13.30;;;5.20;75.20;;;2.81;88.84;96102.97;4930857;29;20048;-63
2022/01/10 10:17:56;;;;;;;19.13;13.60;;;5.20;75.30;;;2.88;88.81;96108.44;4930921;29;20043;-63
2022/01/10 10:20:23;;;;;;;22.45;13.90;;;5.40;75.00;;;2.92;88.96;96112.38;4924817;29;20086;-62
2022/01/10 10:22:50;;;;;;;21.10;14.07;;;5.40;74.80;;;2.92;88.38;96108.00;4931028;29;20084;-63
2022/01/10 10:25:17;;;;;;;20.88;14.35;;;5.20;74.50;;;2.94;88.17;96115.66;4899814;29;20031;-63
2022/01/10 10:27:45;;;;;;;18.90;13.23;;;5.30;74.80;;;2.97;87.88;96121.41;4931528;29;20135;-63
2022/01/10 10:30:23;;;;;;;21.00;13.40;;;5.30;74.40;;;3.00;87.16;96121.13;4932495;28;20036;-63
2022/01/10 10:32:50;;;;;;;22.48;15.18;;;5.30;74.00;;;3.02;87.68;96121.78;4915617;29;20527;-62